sensor_id;sensor_type;location;lat;lon;timestamp;pressure;altitude;pressure_sealevel;temperature;humidity
50103;BME280;35993;52.604;10.078;2023-01-28T00:01:10;102455.69;;;1.66;86.01
50103;BME280;35993;52.604;10.078;2023-01-28T00:03:36;102459.00;;;1.70;85.96
50103;BME280;35993;52.604;10.078;2023-01-28T00:06:08;102453.66;;;1.70;85.61
50103;BME280;35993;52.604;10.078;2023-01-28T00:08:34;102457.28;;;1.69;85.86
50103;BME280;35993;52.604;10.078;2023-01-28T00:11:02;102453.03;;;1.66;84.99
50103;BME280;35993;52.604;10.078;2023-01-28T00:13:28;102452.19;;;1.66;84.77
50103;BME280;35993;52.604;10.078;2023-01-28T00:15:59;102451.56;;;1.62;85.08
50103;BME280;35993;52.604;10.078;2023-01-28T00:18:26;102454.09;;;1.63;85.96
50103;BME280;35993;52.604;10.078;2023-01-28T00:20:59;102451.56;;;1.62;86.43
50103;BME280;35993;52.604;10.078;2023-01-28T00:23:31;102441.47;;;1.66;85.58
50103;BME280;35993;52.604;10.078;2023-01-28T00:25:58;102449.88;;;1.72;85.53
50103;BME280;35993;52.604;10.078;2023-01-28T00:28:24;102446.59;;;1.69;84.76
50103;BME280;35993;52.604;10.078;2023-01-28T00:30:49;102452.19;;;1.66;84.52
50103;BME280;35993;52.604;10.078;2023-01-28T00:33:15;102448.03;;;1.61;84.69
50103;BME280;35993;52.604;10.078;2023-01-28T00:35:41;102459.19;;;1.55;85.66
50103;BME280;35993;52.604;10.078;2023-01-28T00:38:07;102458.56;;;1.52;86.55
50103;BME280;35993;52.604;10.078;2023-01-28T00:40:33;102455.88;;;1.52;86.60
50103;BME280;35993;52.604;10.078;2023-01-28T00:42:59;102451.38;;;1.52;86.44
50103;BME280;35993;52.604;10.078;2023-01-28T00:45:25;102451.44;;;1.63;85.47
50103;BME280;35993;52.604;10.078;2023-01-28T00:47:50;102443.41;;;1.63;84.84
50103;BME280;35993;52.604;10.078;2023-01-28T00:50:18;102454.59;;;1.57;85.38
50103;BME280;35993;52.604;10.078;2023-01-28T00:52:46;102452.38;;;1.51;85.79
50103;BME280;35993;52.604;10.078;2023-01-28T00:55:12;102457.59;;;1.53;86.47
50103;BME280;35993;52.604;10.078;2023-01-28T00:57:39;102454.06;;;1.52;86.44
50103;BME280;35993;52.604;10.078;2023-01-28T01:00:06;102457.34;;;1.56;87.43
50103;BME280;35993;52.604;10.078;2023-01-28T01:02:32;102457.16;;;1.59;88.06
50103;BME280;35993;52.604;10.078;2023-01-28T01:04:58;102450.53;;;1.52;87.90
50103;BME280;35993;52.604;10.078;2023-01-28T01:07:26;102455.81;;;1.40;88.38
50103;BME280;35993;52.604;10.078;2023-01-28T01:10:10;102467.69;;;1.49;89.56
50103;BME280;35993;52.604;10.078;2023-01-28T01:12:37;102452.69;;;1.46;89.65
50103;BME280;35993;52.604;10.078;2023-01-28T01:15:03;102454.13;;;1.39;88.40
50103;BME280;35993;52.604;10.078;2023-01-28T01:17:33;102455.81;;;1.40;88.28
50103;BME280;35993;52.604;10.078;2023-01-28T01:20:00;102446.72;;;1.43;87.16
50103;BME280;35993;52.604;10.078;2023-01-28T01:22:25;102448.66;;;1.41;87.45
50103;BME280;35993;52.604;10.078;2023-01-28T01:24:51;102448.56;;;1.42;86.63
50103;BME280;35993;52.604;10.078;2023-01-28T01:27:16;102453.53;;;1.47;87.30
50103;BME280;35993;52.604;10.078;2023-01-28T01:29:42;102453.53;;;1.47;87.01
50103;BME280;35993;52.604;10.078;2023-01-28T01:32:07;102454.28;;;1.49;86.23
50103;BME280;35993;52.604;10.078;2023-01-28T01:34:33;102453.97;;;1.54;85.46
50103;BME280;35993;52.604;10.078;2023-01-28T01:36:58;102452.63;;;1.59;85.51
50103;BME280;35993;52.604;10.078;2023-01-28T01:39:24;102454.59;;;1.57;86.10
50103;BME280;35993;52.604;10.078;2023-01-28T01:41:49;102454.34;;;1.60;85.16
50103;BME280;35993;52.604;10.078;2023-01-28T01:47:20;102455.44;;;1.58;84.34
50103;BME280;35993;52.604;10.078;2023-01-28T01:49:48;102453.66;;;1.45;83.65
50103;BME280;35993;52.604;10.078;2023-01-28T01:52:17;102453.97;;;1.54;83.79
50103;BME280;35993;52.604;10.078;2023-01-28T01:54:46;102458.94;;;1.58;82.79
50103;BME280;35993;52.604;10.078;2023-01-28T01:57:16;102453.50;;;1.60;84.09
50103;BME280;35993;52.604;10.078;2023-01-28T01:59:45;102461.53;;;1.60;83.71
50103;BME280;35993;52.604;10.078;2023-01-28T02:02:11;102466.97;;;1.58;84.04
50103;BME280;35993;52.604;10.078;2023-01-28T02:04:42;102467.78;;;1.47;83.64
50103;BME280;35993;52.604;10.078;2023-01-28T02:07:11;102468.75;;;1.46;84.72
50103;BME280;35993;52.604;10.078;2023-01-28T02:09:39;102474.63;;;1.52;85.35
50103;BME280;35993;52.604;10.078;2023-01-28T02:12:28;102470.66;;;1.57;84.20
50103;BME280;35993;52.604;10.078;2023-01-28T02:17:29;102467.22;;;1.55;83.74
50103;BME280;35993;52.604;10.078;2023-01-28T02:20:05;102472.78;;;1.52;84.60
50103;BME280;35993;52.604;10.078;2023-01-28T02:28:51;102464.75;;;1.52;84.58
50103;BME280;35993;52.604;10.078;2023-01-28T02:31:24;102455.13;;;1.50;82.85
50103;BME280;35993;52.604;10.078;2023-01-28T02:36:41;102459.31;;;1.54;82.98
50103;BME280;35993;52.604;10.078;2023-01-28T02:39:28;102460.59;;;1.48;84.35
50103;BME280;35993;52.604;10.078;2023-01-28T02:42:02;102467.03;;;1.45;85.40
50103;BME280;35993;52.604;10.078;2023-01-28T02:44:28;102466.41;;;1.42;86.20
50103;BME280;35993;52.604;10.078;2023-01-28T02:46:54;102456.75;;;1.28;85.85
50103;BME280;35993;52.604;10.078;2023-01-28T02:49:51;102453.91;;;1.42;83.21
50103;BME280;35993;52.604;10.078;2023-01-28T02:52:40;102442.63;;;1.50;81.62
50103;BME280;35993;52.604;10.078;2023-01-28T02:58:30;102451.50;;;1.26;84.23
50103;BME280;35993;52.604;10.078;2023-01-28T03:03:47;102455.16;;;1.25;86.33
50103;BME280;35993;52.604;10.078;2023-01-28T03:06:18;102454.81;;;1.30;87.62
50103;BME280;35993;52.604;10.078;2023-01-28T03:08:51;102456.22;;;1.23;87.61
50103;BME280;35993;52.604;10.078;2023-01-28T03:11:40;102446.44;;;1.10;86.33
50103;BME280;35993;52.604;10.078;2023-01-28T03:14:25;102434.91;;;0.97;85.63
50103;BME280;35993;52.604;10.078;2023-01-28T03:17:18;102431.50;;;0.95;86.67
50103;BME280;35993;52.604;10.078;2023-01-28T03:20:04;102435.09;;;1.07;87.49
50103;BME280;35993;52.604;10.078;2023-01-28T03:22:52;102438.69;;;1.19;87.30
50103;BME280;35993;52.604;10.078;2023-01-28T03:25:39;102435.69;;;1.23;85.93
50103;BME280;35993;52.604;10.078;2023-01-28T03:28:27;102435.69;;;1.23;85.67
50103;BME280;35993;52.604;10.078;2023-01-28T03:31:14;102439.81;;;1.27;85.26
50103;BME280;35993;52.604;10.078;2023-01-28T03:34:01;102450.19;;;1.32;85.11
50103;BME280;35993;52.604;10.078;2023-01-28T03:36:46;102453.00;;;1.30;85.99
50103;BME280;35993;52.604;10.078;2023-01-28T03:39:32;102452.00;;;1.31;85.67
50103;BME280;35993;52.604;10.078;2023-01-28T03:44:28;102441.94;;;1.35;81.61
50103;BME280;35993;52.604;10.078;2023-01-28T03:47:12;102445.38;;;1.37;81.80
50103;BME280;35993;52.604;10.078;2023-01-28T03:49:42;102440.59;;;1.29;82.24
50103;BME280;35993;52.604;10.078;2023-01-28T03:52:11;102446.63;;;1.07;82.64
50103;BME280;35993;52.604;10.078;2023-01-28T03:54:37;102440.97;;;1.12;84.28
50103;BME280;35993;52.604;10.078;2023-01-28T03:57:02;102448.75;;;1.15;84.61
50103;BME280;35993;52.604;10.078;2023-01-28T03:59:28;102451.22;;;1.18;85.14
50103;BME280;35993;52.604;10.078;2023-01-28T04:01:54;102456.13;;;1.24;85.05
50103;BME280;35993;52.604;10.078;2023-01-28T04:04:20;102453.31;;;1.26;85.24
50103;BME280;35993;52.604;10.078;2023-01-28T04:06:53;102453.31;;;1.26;84.29
50103;BME280;35993;52.604;10.078;2023-01-28T04:09:40;102449.69;;;1.27;83.21
50103;BME280;35993;52.604;10.078;2023-01-28T04:12:24;102450.19;;;1.32;83.61
50103;BME280;35993;52.604;10.078;2023-01-28T04:14:50;102462.75;;;1.19;83.86
50103;BME280;35993;52.604;10.078;2023-01-28T04:17:24;102461.69;;;1.21;84.38
50103;BME280;35993;52.604;10.078;2023-01-28T04:19:50;102461.34;;;1.26;84.20
50103;BME280;35993;52.604;10.078;2023-01-28T04:22:16;102467.19;;;1.07;84.39
50103;BME280;35993;52.604;10.078;2023-01-28T04:24:41;102469.22;;;1.03;85.10
50103;BME280;35993;52.604;10.078;2023-01-28T04:27:07;102477.22;;;1.16;84.81
50103;BME280;35993;52.604;10.078;2023-01-28T04:29:33;102475.50;;;1.15;84.29
50103;BME280;35993;52.604;10.078;2023-01-28T04:32:14;102474.34;;;1.19;83.98
50103;BME280;35993;52.604;10.078;2023-01-28T04:34:58;102477.97;;;1.18;83.95
50103;BME280;35993;52.604;10.078;2023-01-28T04:37:35;102466.41;;;1.18;84.19
50103;BME280;35993;52.604;10.078;2023-01-28T04:40:26;102467.91;;;1.22;83.60
50103;BME280;35993;52.604;10.078;2023-01-28T04:42:56;102470.22;;;1.26;83.46
50103;BME280;35993;52.604;10.078;2023-01-28T04:45:41;102469.69;;;1.21;83.50
50103;BME280;35993;52.604;10.078;2023-01-28T04:48:33;102464.34;;;1.21;83.03
50103;BME280;35993;52.604;10.078;2023-01-28T04:51:22;102476.25;;;1.17;84.40
50103;BME280;35993;52.604;10.078;2023-01-28T04:54:06;102481.72;;;1.16;83.62
50103;BME280;35993;52.604;10.078;2023-01-28T04:56:33;102476.69;;;1.11;83.86
50103;BME280;35993;52.604;10.078;2023-01-28T04:58:59;102479.78;;;1.18;84.18
50103;BME280;35993;52.604;10.078;2023-01-28T05:01:27;102478.81;;;1.19;85.80
50103;BME280;35993;52.604;10.078;2023-01-28T05:03:53;102476.06;;;1.07;85.60
50103;BME280;35993;52.604;10.078;2023-01-28T05:06:26;102494.63;;;0.85;87.20
50103;BME280;35993;52.604;10.078;2023-01-28T05:08:54;102487.34;;;0.74;87.87
50103;BME280;35993;52.604;10.078;2023-01-28T05:11:20;102490.44;;;0.80;87.80
50103;BME280;35993;52.604;10.078;2023-01-28T05:13:49;102487.84;;;0.92;86.67
50103;BME280;35993;52.604;10.078;2023-01-28T05:16:17;102479.81;;;1.05;84.54
50103;BME280;35993;52.604;10.078;2023-01-28T05:18:42;102476.69;;;1.11;82.66
50103;BME280;35993;52.604;10.078;2023-01-28T05:21:12;102469.97;;;1.05;81.49
50103;BME280;35993;52.604;10.078;2023-01-28T05:23:38;102462.16;;;1.02;81.36
50103;BME280;35993;52.604;10.078;2023-01-28T05:26:04;102469.75;;;1.08;81.01
50103;BME280;35993;52.604;10.078;2023-01-28T05:28:31;102465.72;;;1.03;80.60
50103;BME280;35993;52.604;10.078;2023-01-28T05:31:05;102457.56;;;1.04;81.46
50103;BME280;35993;52.604;10.078;2023-01-28T05:33:31;102461.00;;;1.06;81.80
50103;BME280;35993;52.604;10.078;2023-01-28T05:35:57;102469.22;;;1.03;82.84
50103;BME280;35993;52.604;10.078;2023-01-28T05:38:23;102478.97;;;1.04;83.24
50103;BME280;35993;52.604;10.078;2023-01-28T05:40:48;102467.44;;;1.04;82.16
50103;BME280;35993;52.604;10.078;2023-01-28T05:43:14;102468.16;;;1.06;80.96
50103;BME280;35993;52.604;10.078;2023-01-28T05:45:45;102458.75;;;1.00;80.53
50103;BME280;35993;52.604;10.078;2023-01-28T05:48:32;102465.34;;;1.07;81.47
50103;BME280;35993;52.604;10.078;2023-01-28T05:51:30;102463.66;;;1.06;81.91
50103;BME280;35993;52.604;10.078;2023-01-28T05:53:57;102453.06;;;1.05;79.58
50103;BME280;35993;52.604;10.078;2023-01-28T05:56:22;102449.19;;;0.85;79.54
50103;BME280;35993;52.604;10.078;2023-01-28T05:58:48;102453.69;;;0.71;81.14
50103;BME280;35993;52.604;10.078;2023-01-28T06:01:13;102463.69;;;0.80;83.36
50103;BME280;35993;52.604;10.078;2023-01-28T06:03:46;102472.59;;;0.81;83.77
50103;BME280;35993;52.604;10.078;2023-01-28T06:06:12;102469.97;;;0.55;84.17
50103;BME280;35993;52.604;10.078;2023-01-28T06:08:38;102473.47;;;0.56;84.03
50103;BME280;35993;52.604;10.078;2023-01-28T06:11:03;102465.78;;;0.77;83.79
50103;BME280;35993;52.604;10.078;2023-01-28T06:13:31;102472.00;;;0.52;82.90
50103;BME280;35993;52.604;10.078;2023-01-28T06:16:01;102472.81;;;0.52;84.02
50103;BME280;35993;52.604;10.078;2023-01-28T06:18:37;102468.88;;;0.71;83.28
50103;BME280;35993;52.604;10.078;2023-01-28T06:21:03;102462.75;;;0.81;81.67
50103;BME280;35993;52.604;10.078;2023-01-28T06:23:29;102473.13;;;0.86;81.86
50103;BME280;35993;52.604;10.078;2023-01-28T06:25:55;102475.94;;;0.72;81.50
50103;BME280;35993;52.604;10.078;2023-01-28T06:28:22;102457.75;;;0.64;81.47
50103;BME280;35993;52.604;10.078;2023-01-28T06:30:50;102468.22;;;0.80;81.66
50103;BME280;35993;52.604;10.078;2023-01-28T06:33:16;102464.44;;;0.95;80.13
50103;BME280;35993;52.604;10.078;2023-01-28T06:35:42;102463.47;;;0.96;79.09
50103;BME280;35993;52.604;10.078;2023-01-28T06:38:10;102472.78;;;0.91;79.27
50103;BME280;35993;52.604;10.078;2023-01-28T06:40:36;102470.84;;;0.93;79.65
50103;BME280;35993;52.604;10.078;2023-01-28T06:43:02;102467.97;;;0.96;79.92
50103;BME280;35993;52.604;10.078;2023-01-28T06:45:27;102466.91;;;0.98;79.67
50103;BME280;35993;52.604;10.078;2023-01-28T06:47:53;102472.59;;;0.81;80.22
50103;BME280;35993;52.604;10.078;2023-01-28T06:50:18;102481.19;;;0.60;81.67
50103;BME280;35993;52.604;10.078;2023-01-28T06:52:44;102489.28;;;0.59;82.75
50103;BME280;35993;52.604;10.078;2023-01-28T06:55:10;102478.50;;;0.60;82.77
50103;BME280;35993;52.604;10.078;2023-01-28T06:57:39;102484.28;;;0.54;82.38
50103;BME280;35993;52.604;10.078;2023-01-28T07:00:07;102487.25;;;0.49;82.82
50103;BME280;35993;52.604;10.078;2023-01-28T07:02:34;102465.69;;;0.40;80.23
50103;BME280;35993;52.604;10.078;2023-01-28T07:05:00;102475.84;;;0.60;81.32
50103;BME280;35993;52.604;10.078;2023-01-28T07:07:26;102471.53;;;0.71;80.75
50103;BME280;35993;52.604;10.078;2023-01-28T07:09:52;102476.13;;;0.81;81.09
50103;BME280;35993;52.604;10.078;2023-01-28T07:12:17;102469.19;;;0.53;81.09
50103;BME280;35993;52.604;10.078;2023-01-28T07:14:43;102483.63;;;0.38;82.28
50103;BME280;35993;52.604;10.078;2023-01-28T07:17:08;102488.13;;;0.37;83.63
50103;BME280;35993;52.604;10.078;2023-01-28T07:19:34;102488.03;;;0.39;84.00
50103;BME280;35993;52.604;10.078;2023-01-28T07:21:59;102493.66;;;0.47;83.93
50103;BME280;35993;52.604;10.078;2023-01-28T07:24:28;102481.47;;;0.69;82.10
50103;BME280;35993;52.604;10.078;2023-01-28T07:26:53;102476.16;;;0.56;81.30
50103;BME280;35993;52.604;10.078;2023-01-28T07:29:19;102484.59;;;0.37;81.22
50103;BME280;35993;52.604;10.078;2023-01-28T07:31:44;102478.06;;;0.28;80.58
50103;BME280;35993;52.604;10.078;2023-01-28T07:34:10;102493.66;;;0.34;81.90
50103;BME280;35993;52.604;10.078;2023-01-28T07:36:36;102492.72;;;0.48;82.13
50103;BME280;35993;52.604;10.078;2023-01-28T07:39:02;102479.66;;;0.43;80.90
50103;BME280;35993;52.604;10.078;2023-01-28T07:41:27;102488.31;;;0.34;82.37
50103;BME280;35993;52.604;10.078;2023-01-28T07:43:53;102485.88;;;0.31;81.98
50103;BME280;35993;52.604;10.078;2023-01-28T07:46:19;102497.84;;;0.38;81.67
50103;BME280;35993;52.604;10.078;2023-01-28T07:48:45;102492.72;;;0.61;81.82
50103;BME280;35993;52.604;10.078;2023-01-28T07:51:11;102488.53;;;0.70;80.63
50103;BME280;35993;52.604;10.078;2023-01-28T07:53:36;102490.56;;;0.79;80.21
50103;BME280;35993;52.604;10.078;2023-01-28T07:56:02;102493.75;;;0.84;79.69
50103;BME280;35993;52.604;10.078;2023-01-28T07:58:29;102504.16;;;0.76;80.26
50103;BME280;35993;52.604;10.078;2023-01-28T08:00:56;102501.38;;;0.64;81.44
50103;BME280;35993;52.604;10.078;2023-01-28T08:03:23;102506.72;;;0.52;82.00
50103;BME280;35993;52.604;10.078;2023-01-28T08:05:50;102520.94;;;0.39;81.50
50103;BME280;35993;52.604;10.078;2023-01-28T08:08:17;102520.28;;;0.36;81.96
50103;BME280;35993;52.604;10.078;2023-01-28T08:10:43;102528.41;;;0.34;82.00
50103;BME280;35993;52.604;10.078;2023-01-28T08:13:09;102538.69;;;0.53;82.68
50103;BME280;35993;52.604;10.078;2023-01-28T08:15:35;102541.59;;;0.63;82.23
50103;BME280;35993;52.604;10.078;2023-01-28T08:18:02;102535.16;;;0.65;82.52
50103;BME280;35993;52.604;10.078;2023-01-28T08:20:29;102535.69;;;0.58;81.66
50103;BME280;35993;52.604;10.078;2023-01-28T08:25:35;102537.31;;;0.73;82.37
50103;BME280;35993;52.604;10.078;2023-01-28T08:28:02;102532.69;;;0.62;83.01
50103;BME280;35993;52.604;10.078;2023-01-28T08:30:27;102543.59;;;0.59;83.76
50103;BME280;35993;52.604;10.078;2023-01-28T08:32:57;102545.22;;;0.49;81.72
50103;BME280;35993;52.604;10.078;2023-01-28T08:35:25;102540.50;;;0.40;81.27
50103;BME280;35993;52.604;10.078;2023-01-28T08:37:50;102537.84;;;0.40;81.43
50103;BME280;35993;52.604;10.078;2023-01-28T08:40:16;102544.34;;;0.48;81.75
50103;BME280;35993;52.604;10.078;2023-01-28T08:42:52;102551.31;;;0.64;82.38
50103;BME280;35993;52.604;10.078;2023-01-28T08:45:20;102547.66;;;0.65;81.10
50103;BME280;35993;52.604;10.078;2023-01-28T08:47:51;102564.75;;;0.62;79.41
50103;BME280;35993;52.604;10.078;2023-01-28T08:50:18;102561.78;;;0.67;79.08
50103;BME280;35993;52.604;10.078;2023-01-28T08:52:47;102566.91;;;0.57;79.79
50103;BME280;35993;52.604;10.078;2023-01-28T08:55:15;102563.63;;;0.67;80.41
50103;BME280;35993;52.604;10.078;2023-01-28T08:57:40;102568.50;;;0.73;80.91
50103;BME280;35993;52.604;10.078;2023-01-28T09:00:07;102580.38;;;0.69;80.24
50103;BME280;35993;52.604;10.078;2023-01-28T09:02:36;102586.16;;;0.75;80.54
50103;BME280;35993;52.604;10.078;2023-01-28T09:05:02;102585.09;;;0.65;79.53
50103;BME280;35993;52.604;10.078;2023-01-28T09:07:27;102587.97;;;0.49;80.22
50103;BME280;35993;52.604;10.078;2023-01-28T09:09:53;102598.28;;;0.28;80.01
50103;BME280;35993;52.604;10.078;2023-01-28T09:12:19;102594.03;;;0.38;80.58
50103;BME280;35993;52.604;10.078;2023-01-28T09:14:44;102604.53;;;0.54;80.56
50103;BME280;35993;52.604;10.078;2023-01-28T09:17:10;102609.88;;;0.54;80.77
50103;BME280;35993;52.604;10.078;2023-01-28T09:19:35;102620.81;;;0.64;81.44
50103;BME280;35993;52.604;10.078;2023-01-28T09:22:03;102612.56;;;0.54;80.31
50103;BME280;35993;52.604;10.078;2023-01-28T09:24:28;102628.78;;;0.51;79.94
50103;BME280;35993;52.604;10.078;2023-01-28T09:26:54;102624.41;;;0.37;80.16
50103;BME280;35993;52.604;10.078;2023-01-28T09:29:20;102624.72;;;0.45;80.79
50103;BME280;35993;52.604;10.078;2023-01-28T09:31:46;102624.41;;;0.37;79.62
50103;BME280;35993;52.604;10.078;2023-01-28T09:34:11;102612.59;;;0.27;79.23
50103;BME280;35993;52.604;10.078;2023-01-28T09:36:37;102616.69;;;0.32;79.01
50103;BME280;35993;52.604;10.078;2023-01-28T09:39:03;102620.75;;;0.51;79.79
50103;BME280;35993;52.604;10.078;2023-01-28T09:41:44;102610.00;;;0.65;79.14
50103;BME280;35993;52.604;10.078;2023-01-28T09:47:13;102611.94;;;0.76;78.72
50103;BME280;35993;52.604;10.078;2023-01-28T09:49:47;102614.16;;;0.57;80.23
50103;BME280;35993;52.604;10.078;2023-01-28T09:52:16;102623.88;;;0.45;80.24
50103;BME280;35993;52.604;10.078;2023-01-28T09:54:49;102617.13;;;0.52;80.05
50103;BME280;35993;52.604;10.078;2023-01-28T09:57:23;102633.69;;;0.44;80.24
50103;BME280;35993;52.604;10.078;2023-01-28T09:59:49;102620.72;;;0.25;80.26
50103;BME280;35993;52.604;10.078;2023-01-28T10:05:09;102627.38;;;0.32;80.53
50103;BME280;35993;52.604;10.078;2023-01-28T10:10:15;102624.28;;;0.39;80.86
50103;BME280;35993;52.604;10.078;2023-01-28T10:15:26;102619.75;;;0.67;81.83
50103;BME280;35993;52.604;10.078;2023-01-28T10:17:56;102614.34;;;0.54;79.54
50103;BME280;35993;52.604;10.078;2023-01-28T10:20:27;102618.84;;;0.53;80.20
50103;BME280;35993;52.604;10.078;2023-01-28T10:23:03;102619.50;;;0.57;79.80
50103;BME280;35993;52.604;10.078;2023-01-28T10:25:30;102614.56;;;0.51;80.30
50103;BME280;35993;52.604;10.078;2023-01-28T10:27:57;102616.19;;;0.66;80.81
50103;BME280;35993;52.604;10.078;2023-01-28T10:30:27;102619.22;;;0.74;80.87
50103;BME280;35993;52.604;10.078;2023-01-28T10:33:03;102627.78;;;0.79;81.49
50103;BME280;35993;52.604;10.078;2023-01-28T10:35:37;102626.91;;;0.92;81.82
50103;BME280;35993;52.604;10.078;2023-01-28T10:38:05;102619.97;;;0.89;80.88
50103;BME280;35993;52.604;10.078;2023-01-28T10:40:33;102605.81;;;0.61;79.29
50103;BME280;35993;52.604;10.078;2023-01-28T10:43:00;102615.25;;;0.67;80.23
50103;BME280;35993;52.604;10.078;2023-01-28T10:45:28;102625.47;;;1.51;81.73
50103;BME280;35993;52.604;10.078;2023-01-28T10:48:00;102615.22;;;1.57;79.46
50103;BME280;35993;52.604;10.078;2023-01-28T10:50:28;102617.09;;;1.18;79.25
50103;BME280;35993;52.604;10.078;2023-01-28T10:53:00;102623.91;;;1.35;78.97
50103;BME280;35993;52.604;10.078;2023-01-28T10:55:34;102621.34;;;1.34;78.75
50103;BME280;35993;52.604;10.078;2023-01-28T10:58:03;102623.97;;;1.96;80.50
50103;BME280;35993;52.604;10.078;2023-01-28T11:00:35;102617.81;;;2.32;77.70
50103;BME280;35993;52.604;10.078;2023-01-28T11:03:01;102599.41;;;2.74;76.38
50103;BME280;35993;52.604;10.078;2023-01-28T11:05:28;102594.25;;;2.59;77.54
50103;BME280;35993;52.604;10.078;2023-01-28T11:08:15;102586.44;;;1.72;75.35
50103;BME280;35993;52.604;10.078;2023-01-28T11:10:43;102591.81;;;1.22;76.48
50103;BME280;35993;52.604;10.078;2023-01-28T11:13:29;102607.97;;;1.21;78.81
50103;BME280;35993;52.604;10.078;2023-01-28T11:16:03;102600.16;;;0.79;77.77
50103;BME280;35993;52.604;10.078;2023-01-28T11:18:39;102605.00;;;0.87;78.33
50103;BME280;35993;52.604;10.078;2023-01-28T11:21:15;102602.66;;;0.82;77.95
50103;BME280;35993;52.604;10.078;2023-01-28T11:23:59;102600.28;;;1.16;79.39
50103;BME280;35993;52.604;10.078;2023-01-28T11:26:28;102582.00;;;0.84;76.89
50103;BME280;35993;52.604;10.078;2023-01-28T11:28:55;102577.59;;;0.70;77.37
50103;BME280;35993;52.604;10.078;2023-01-28T11:31:21;102574.84;;;0.72;78.23
50103;BME280;35993;52.604;10.078;2023-01-28T11:33:49;102571.94;;;0.88;77.99
50103;BME280;35993;52.604;10.078;2023-01-28T11:36:21;102572.25;;;1.22;78.12
50103;BME280;35993;52.604;10.078;2023-01-28T11:38:58;102568.38;;;1.63;78.26
50103;BME280;35993;52.604;10.078;2023-01-28T11:43:56;102560.22;;;1.27;77.25
50103;BME280;35993;52.604;10.078;2023-01-28T11:49:23;102546.72;;;1.66;77.37
50103;BME280;35993;52.604;10.078;2023-01-28T11:52:17;102552.00;;;1.68;77.29
50103;BME280;35993;52.604;10.078;2023-01-28T11:57:24;102529.38;;;1.72;75.83
50103;BME280;35993;52.604;10.078;2023-01-28T12:02:47;102539.13;;;1.73;76.82
50103;BME280;35993;52.604;10.078;2023-01-28T12:07:44;102540.88;;;1.24;77.99
50103;BME280;35993;52.604;10.078;2023-01-28T12:20:34;102466.25;;;2.50;76.18
50103;BME280;35993;52.604;10.078;2023-01-28T12:26:03;102442.50;;;2.45;74.81
50103;BME280;35993;52.604;10.078;2023-01-28T12:28:44;102442.00;;;2.63;75.39
50103;BME280;35993;52.604;10.078;2023-01-28T12:39:43;102430.06;;;3.34;72.93
50103;BME280;35993;52.604;10.078;2023-01-28T12:42:38;102420.81;;;3.38;73.07
50103;BME280;35993;52.604;10.078;2023-01-28T12:47:44;102428.41;;;3.21;72.33
50103;BME280;35993;52.604;10.078;2023-01-28T12:50:20;102426.75;;;2.98;71.68
50103;BME280;35993;52.604;10.078;2023-01-28T12:52:53;102432.16;;;2.41;71.95
50103;BME280;35993;52.604;10.078;2023-01-28T12:55:39;102437.31;;;2.08;73.29
50103;BME280;35993;52.604;10.078;2023-01-28T12:58:36;102427.63;;;2.19;73.83
50103;BME280;35993;52.604;10.078;2023-01-28T13:01:07;102414.22;;;2.07;73.74
50103;BME280;35993;52.604;10.078;2023-01-28T13:03:40;102423.94;;;1.97;73.93
50103;BME280;35993;52.604;10.078;2023-01-28T13:06:12;102426.50;;;1.99;74.42
50103;BME280;35993;52.604;10.078;2023-01-28T13:08:39;102418.66;;;1.95;74.66
50103;BME280;35993;52.604;10.078;2023-01-28T13:11:11;102437.47;;;1.71;74.20
50103;BME280;35993;52.604;10.078;2023-01-28T13:13:40;102436.38;;;1.62;74.17
50103;BME280;35993;52.604;10.078;2023-01-28T13:16:10;102447.66;;;1.66;74.79
50103;BME280;35993;52.604;10.078;2023-01-28T13:21:16;102451.81;;;1.94;75.22
50103;BME280;35993;52.604;10.078;2023-01-28T13:24:06;102452.41;;;1.98;74.64
50103;BME280;35993;52.604;10.078;2023-01-28T13:26:45;102458.47;;;1.89;74.61
50103;BME280;35993;52.604;10.078;2023-01-28T13:31:42;102471.88;;;2.36;74.19
50103;BME280;35993;52.604;10.078;2023-01-28T13:34:27;102460.53;;;3.00;73.23
50103;BME280;35993;52.604;10.078;2023-01-28T13:36:55;102472.97;;;3.01;71.27
50103;BME280;35993;52.604;10.078;2023-01-28T13:39:24;102466.50;;;3.04;71.06
50103;BME280;35993;52.604;10.078;2023-01-28T13:42:06;102468.06;;;3.18;70.65
50103;BME280;35993;52.604;10.078;2023-01-28T13:44:34;102469.50;;;3.22;70.71
50103;BME280;35993;52.604;10.078;2023-01-28T13:49:37;102463.44;;;3.20;70.28
50103;BME280;35993;52.604;10.078;2023-01-28T13:54:56;102449.91;;;2.99;71.37
50103;BME280;35993;52.604;10.078;2023-01-28T13:57:46;102435.50;;;3.22;70.79
50103;BME280;35993;52.604;10.078;2023-01-28T14:00:40;102426.19;;;3.26;70.37
50103;BME280;35993;52.604;10.078;2023-01-28T14:19:46;102403.84;;;2.93;71.69
50103;BME280;35993;52.604;10.078;2023-01-28T14:22:16;102405.41;;;2.96;71.75
50103;BME280;35993;52.604;10.078;2023-01-28T14:24:43;102397.25;;;2.86;71.58
50103;BME280;35993;52.604;10.078;2023-01-28T14:30:58;102406.66;;;2.46;71.99
50103;BME280;35993;52.604;10.078;2023-01-28T14:32:58;102410.66;;;2.07;72.57
50103;BME280;35993;52.604;10.078;2023-01-28T14:35:31;102414.81;;;2.00;73.50
50103;BME280;35993;52.604;10.078;2023-01-28T14:37:59;102414.53;;;1.91;73.91
50103;BME280;35993;52.604;10.078;2023-01-28T14:40:32;102417.78;;;1.84;74.54
50103;BME280;35993;52.604;10.078;2023-01-28T14:43:04;102425.06;;;1.70;74.79
50103;BME280;35993;52.604;10.078;2023-01-28T14:51:27;102449.81;;;1.85;74.49
50103;BME280;35993;52.604;10.078;2023-01-28T14:57:18;102473.22;;;2.75;73.89
50103;BME280;35993;52.604;10.078;2023-01-28T14:59:50;102477.50;;;2.67;72.98
50103;BME280;35993;52.604;10.078;2023-01-28T15:02:18;102476.53;;;2.68;72.61